createdAt,value
2019-05-30T00:00:03.695Z,99396.80
2019-05-30T00:02:16.575Z,99395.22
2019-05-30T00:04:42.906Z,99405.87
2019-05-30T00:07:11.069Z,99409.75
2019-05-30T00:09:37.135Z,99402.86
2019-05-30T00:12:04.884Z,99395.98
2019-05-30T00:14:31.420Z,99406.05
2019-05-30T00:16:58.772Z,99407.48
2019-05-30T00:19:25.186Z,99402.95
2019-05-30T00:21:51.693Z,99405.75
2019-05-30T00:24:17.875Z,99410.34
2019-05-30T00:26:44.085Z,99412.78
2019-05-30T00:29:10.248Z,99409.92
2019-05-30T00:31:36.427Z,99410.58
2019-05-30T00:34:04.095Z,99417.56
2019-05-30T00:36:30.447Z,99413.19
2019-05-30T00:38:57.640Z,99413.41
2019-05-30T00:41:24.121Z,99412.27
2019-05-30T00:43:50.383Z,99411.30
2019-05-30T00:46:16.676Z,99420.79
2019-05-30T00:48:42.892Z,99424.77
2019-05-30T00:51:09.056Z,99416.70
2019-05-30T00:53:35.393Z,99427.30
2019-05-30T00:56:03.017Z,99423.47
2019-05-30T00:58:29.460Z,99419.30
2019-05-30T01:00:56.747Z,99416.66
2019-05-30T01:03:23.233Z,99422.13
2019-05-30T01:05:49.419Z,99416.33
2019-05-30T01:08:15.587Z,99420.55
2019-05-30T01:10:41.798Z,99422.17
2019-05-30T01:13:08.066Z,99428.94
2019-05-30T01:15:34.224Z,99430.33
2019-05-30T01:18:01.030Z,99429.73
2019-05-30T01:20:27.410Z,99429.50
2019-05-30T01:22:53.597Z,99419.72
2019-05-30T01:25:19.759Z,99427.84
2019-05-30T01:27:45.942Z,99434.80
2019-05-30T01:30:13.516Z,99430.70
2019-05-30T01:32:39.742Z,99425.25
2019-05-30T01:35:06.330Z,99428.19
2019-05-30T01:37:32.495Z,99418.89
2019-05-30T01:39:59.771Z,99426.34
2019-05-30T01:42:26.093Z,99424.59
2019-05-30T01:44:52.256Z,99423.28
2019-05-30T01:47:18.481Z,99412.25
2019-05-30T01:49:44.736Z,99412.16
2019-05-30T01:52:10.911Z,99418.27
2019-05-30T01:54:38.845Z,99420.68
2019-05-30T01:57:05.003Z,99425.94
2019-05-30T01:59:31.175Z,99421.39
2019-05-30T02:01:58.763Z,99421.08
2019-05-30T02:04:25.297Z,99420.97
2019-05-30T02:06:51.457Z,99418.27
2019-05-30T02:09:17.671Z,99419.63
2019-05-30T02:11:43.829Z,99422.03
2019-05-30T02:14:10.115Z,99418.02
2019-05-30T02:16:36.328Z,99429.63
2019-05-30T02:19:03.619Z,99432.84
2019-05-30T02:21:30.160Z,99438.78
2019-05-30T02:23:56.346Z,99445.20
2019-05-30T02:26:22.520Z,99454.80
2019-05-30T02:28:48.674Z,99451.28
2019-05-30T02:31:14.911Z,99455.52
2019-05-30T02:33:41.098Z,99466.91
2019-05-30T02:36:08.451Z,99457.91
2019-05-30T02:38:35.379Z,99461.35
2019-05-30T02:41:03.228Z,99455.39
2019-05-30T02:43:29.648Z,99465.51
2019-05-30T02:45:55.850Z,99466.02
2019-05-30T02:48:22.173Z,99457.08
2019-05-30T02:50:48.438Z,99459.47
2019-05-30T02:53:14.626Z,99453.47
2019-05-30T02:55:41.616Z,99460.35
2019-05-30T02:58:08.594Z,99461.05
2019-05-30T03:00:36.310Z,99459.81
2019-05-30T03:03:03.976Z,99451.75
2019-05-30T03:05:31.407Z,99459.03
2019-05-30T03:07:57.634Z,99458.80
2019-05-30T03:10:23.778Z,99460.52
2019-05-30T03:12:49.938Z,99462.89
2019-05-30T03:15:17.064Z,99455.00
2019-05-30T03:17:43.235Z,99459.89
2019-05-30T03:20:18.835Z,99464.75
2019-05-30T03:22:38.305Z,99471.31
2019-05-30T03:25:05.638Z,99469.56
2019-05-30T03:27:32.731Z,99472.68
2019-05-30T03:29:59.013Z,99476.00
2019-05-30T03:34:53.288Z,99465.02
2019-05-30T03:37:28.836Z,99464.02
2019-05-30T03:39:47.565Z,99459.03
2019-05-30T03:42:15.813Z,99456.97
2019-05-30T03:44:41.847Z,99446.63
2019-05-30T03:47:11.762Z,99443.99
2019-05-30T03:49:42.566Z,99446.40
2019-05-30T03:52:14.501Z,99441.71
2019-05-30T03:54:40.535Z,99437.49
2019-05-30T03:57:16.413Z,99456.25
2019-05-30T03:59:46.321Z,99463.20
2019-05-30T04:02:21.924Z,99467.81
2019-05-30T04:04:57.707Z,99471.94
2019-05-30T04:07:27.013Z,99471.81
2019-05-30T04:09:55.895Z,99476.92
2019-05-30T04:12:43.994Z,99481.91
2019-05-30T04:15:28.904Z,99486.95
2019-05-30T04:17:55.126Z,99488.73
2019-05-30T04:20:23.186Z,99493.27
2019-05-30T04:22:49.317Z,99489.88
2019-05-30T04:25:16.727Z,99492.11
2019-05-30T04:27:43.194Z,99494.20
2019-05-30T04:30:10.025Z,99499.20
2019-05-30T04:32:36.485Z,99503.20
2019-05-30T04:35:03.940Z,99509.52
2019-05-30T04:37:30.100Z,99506.22
2019-05-30T04:39:56.307Z,99509.14
2019-05-30T04:42:22.492Z,99521.80
2019-05-30T04:44:48.647Z,99515.17
2019-05-30T04:47:16.087Z,99519.02
2019-05-30T04:49:42.535Z,99524.50
2019-05-30T04:52:12.043Z,99528.73
2019-05-30T04:54:36.821Z,99529.08
2019-05-30T04:57:03.108Z,99535.56
2019-05-30T04:59:29.257Z,99544.04
2019-05-30T05:01:55.463Z,99545.53
2019-05-30T05:04:21.943Z,99549.86
2019-05-30T05:06:48.400Z,99546.77
2019-05-30T05:09:16.057Z,99546.02
2019-05-30T05:11:42.497Z,99553.31
2019-05-30T05:14:08.661Z,99560.06
2019-05-30T05:16:36.476Z,99564.92
2019-05-30T05:19:02.934Z,99557.18
2019-05-30T05:21:29.104Z,99555.89
2019-05-30T05:23:55.293Z,99550.44
2019-05-30T05:26:23.635Z,99559.51
2019-05-30T05:28:49.596Z,99560.88
2019-05-30T05:31:16.456Z,99555.00
2019-05-30T05:33:55.789Z,99551.19
2019-05-30T05:36:10.915Z,99554.21
2019-05-30T05:38:37.135Z,99553.66
2019-05-30T05:41:03.314Z,99549.47
2019-05-30T05:43:29.462Z,99552.08
2019-05-30T05:45:55.667Z,99552.81
2019-05-30T05:48:22.609Z,99552.34
2019-05-30T05:50:49.176Z,99553.33
2019-05-30T05:53:16.541Z,99544.41
2019-05-30T05:55:42.972Z,99545.48
2019-05-30T05:58:09.125Z,99549.47
2019-05-30T06:00:35.356Z,99539.64
2019-05-30T06:03:01.631Z,99543.98
2019-05-30T06:05:28.460Z,99541.77
2019-05-30T06:07:54.809Z,99537.05
2019-05-30T06:10:21.755Z,99536.33
2019-05-30T06:12:48.141Z,99531.97
2019-05-30T06:15:14.737Z,99533.91
2019-05-30T06:17:40.934Z,99542.82
2019-05-30T06:20:07.996Z,99545.77
2019-05-30T06:22:34.202Z,99547.66
2019-05-30T06:25:01.747Z,99553.04
2019-05-30T06:27:28.138Z,99548.37
2019-05-30T06:29:54.380Z,99538.63
2019-05-30T06:32:20.892Z,99538.08
2019-05-30T06:34:47.380Z,99546.47
2019-05-30T06:37:13.724Z,99546.47
2019-05-30T06:39:39.963Z,99544.16
2019-05-30T06:42:06.152Z,99544.16
2019-05-30T06:44:32.355Z,99544.53
2019-05-30T06:46:58.554Z,99537.94
2019-05-30T06:49:25.143Z,99530.29
2019-05-30T06:51:51.340Z,99549.97
2019-05-30T06:54:17.539Z,99560.73
2019-05-30T06:56:44.737Z,99563.55
2019-05-30T06:59:11.307Z,99565.28
2019-05-30T07:01:37.530Z,99559.37
2019-05-30T07:04:03.975Z,99561.73
2019-05-30T07:06:31.640Z,99563.02
2019-05-30T07:08:58.610Z,99561.63
2019-05-30T07:11:24.827Z,99553.16
2019-05-30T07:13:51.071Z,99547.59
2019-05-30T07:16:17.251Z,99554.65
2019-05-30T07:18:43.450Z,99383.84
2019-05-30T07:21:09.645Z,99544.45
2019-05-30T07:23:39.049Z,99550.92
2019-05-30T07:26:03.970Z,99548.81
2019-05-30T07:28:30.241Z,99552.73
2019-05-30T07:30:56.465Z,99558.74
2019-05-30T07:33:23.900Z,99553.14
2019-05-30T07:35:50.464Z,99553.69
2019-05-30T07:38:16.637Z,99553.69
2019-05-30T07:40:42.932Z,99550.14
2019-05-30T07:43:09.123Z,99543.31
2019-05-30T07:45:35.313Z,99545.02
2019-05-30T07:48:01.481Z,99548.67
2019-05-30T07:50:28.394Z,99555.02
2019-05-30T07:52:54.847Z,99552.37
2019-05-30T07:55:21.046Z,99549.75
2019-05-30T07:57:47.272Z,99550.73
2019-05-30T08:00:14.757Z,99560.28
2019-05-30T08:02:42.005Z,99565.83
2019-05-30T08:05:22.709Z,99556.44
2019-05-30T08:07:36.856Z,99550.38
2019-05-30T08:10:05.644Z,99552.03
2019-05-30T08:12:32.102Z,99556.70
2019-05-30T08:14:58.325Z,99557.77
2019-05-30T08:17:24.513Z,99560.73
2019-05-30T08:19:51.023Z,99557.52
2019-05-30T08:22:17.305Z,99564.31
2019-05-30T08:24:43.561Z,99564.11
2019-05-30T08:27:09.761Z,99567.86
2019-05-30T08:29:36.451Z,99560.79
2019-05-30T08:32:02.950Z,99569.92
2019-05-30T08:34:30.459Z,99573.87
2019-05-30T08:36:56.710Z,99578.25
2019-05-30T08:39:22.904Z,99576.52
2019-05-30T08:41:49.128Z,99576.16
2019-05-30T08:44:15.432Z,99570.34
2019-05-30T08:46:41.621Z,99566.89
2019-05-30T08:49:07.817Z,99571.77
2019-05-30T08:51:34.186Z,99576.55
2019-05-30T08:54:00.582Z,99585.27
2019-05-30T08:56:28.547Z,99585.27
2019-05-30T08:58:55.082Z,99574.81
2019-05-30T09:01:21.272Z,99580.08
2019-05-30T09:03:47.522Z,99578.06
2019-05-30T09:06:13.738Z,99562.58
2019-05-30T09:08:40.127Z,99574.81
2019-05-30T09:11:06.373Z,99563.53
2019-05-30T09:13:32.532Z,99578.54
2019-05-30T09:15:58.744Z,99574.88
2019-05-30T09:18:25.031Z,99570.95
2019-05-30T09:20:51.196Z,99574.37
2019-05-30T09:23:17.372Z,99577.92
2019-05-30T09:25:46.875Z,99582.55
2019-05-30T09:28:12.231Z,99577.61
2019-05-30T09:30:39.884Z,99570.69
2019-05-30T09:33:06.604Z,99563.17
2019-05-30T09:35:32.776Z,99566.14
2019-05-30T09:37:59.085Z,99558.17
2019-05-30T09:40:26.170Z,99560.78
2019-05-30T09:42:52.336Z,99561.48
2019-05-30T09:45:19.431Z,99564.36
2019-05-30T09:47:47.129Z,99561.74
2019-05-30T09:50:13.881Z,99548.67
2019-05-30T09:52:41.652Z,99540.62
2019-05-30T09:55:08.881Z,99543.94
2019-05-30T09:57:35.060Z,99547.94
2019-05-30T10:00:01.245Z,99549.18
2019-05-30T10:02:27.440Z,99551.59
2019-05-30T10:04:53.647Z,99551.38
2019-05-30T10:07:19.836Z,99552.80
2019-05-30T10:09:47.146Z,99550.73
2019-05-30T10:12:13.525Z,99550.97
2019-05-30T10:14:39.694Z,99556.42
2019-05-30T10:17:05.949Z,99554.30
2019-05-30T10:19:32.115Z,99550.04
2019-05-30T10:21:58.312Z,99547.17
2019-05-30T10:24:24.522Z,99558.02
2019-05-30T10:26:51.132Z,99559.63
2019-05-30T10:29:17.350Z,99557.34
2019-05-30T10:31:44.903Z,99566.73
2019-05-30T10:34:11.256Z,99558.30
2019-05-30T10:36:44.372Z,99562.14
2019-05-30T10:39:06.540Z,99552.42
2019-05-30T10:41:32.705Z,99552.42
2019-05-30T10:43:58.874Z,99547.25
2019-05-30T10:46:25.100Z,99557.76
2019-05-30T10:48:52.786Z,99547.12
2019-05-30T10:51:19.121Z,99556.44
2019-05-30T10:53:47.071Z,99552.21
2019-05-30T10:56:13.528Z,99557.55
2019-05-30T10:58:39.910Z,99559.48
2019-05-30T11:01:06.308Z,99552.15
2019-05-30T11:03:32.466Z,99562.22
2019-05-30T11:06:28.218Z,99559.06
2019-05-30T11:08:56.972Z,99555.93
2019-05-30T11:11:23.286Z,99555.93
2019-05-30T11:13:49.484Z,99545.45
2019-05-30T11:16:15.660Z,99549.86
2019-05-30T11:18:41.818Z,99540.40
2019-05-30T11:21:08.044Z,99534.44
2019-05-30T11:23:34.235Z,99529.63
2019-05-30T11:26:00.410Z,99529.63
2019-05-30T11:28:26.711Z,99536.60
2019-05-30T11:30:52.901Z,99533.88
2019-05-30T11:33:19.087Z,99537.52
2019-05-30T11:35:45.293Z,99530.29
2019-05-30T11:38:11.489Z,99528.92
2019-05-30T11:40:38.871Z,99529.42
2019-05-30T11:43:05.076Z,99529.42
2019-05-30T11:45:31.263Z,99526.16
2019-05-30T11:47:58.043Z,99521.64
2019-05-30T11:50:25.162Z,99531.21
2019-05-30T11:52:51.710Z,99308.28
2019-05-30T11:55:18.109Z,99510.88
2019-05-30T11:57:44.321Z,99513.14
2019-05-30T12:00:12.421Z,99513.14
2019-05-30T12:02:38.577Z,99522.95
2019-05-30T12:05:05.764Z,99543.43
2019-05-30T12:07:36.168Z,99543.18
2019-05-30T12:10:01.102Z,99534.63
2019-05-30T12:12:27.653Z,99537.94
2019-05-30T12:14:55.186Z,99548.28
2019-05-30T12:17:21.503Z,99552.14
2019-05-30T12:19:47.708Z,99541.06
2019-05-30T12:22:13.881Z,99549.70
2019-05-30T12:24:40.076Z,99557.03
2019-05-30T12:27:06.448Z,99562.22
2019-05-30T12:29:32.629Z,99571.38
2019-05-30T12:32:00.682Z,99565.34
2019-05-30T12:34:26.980Z,99565.14
2019-05-30T12:36:54.272Z,99568.55
2019-05-30T12:39:20.620Z,99569.59
2019-05-30T12:41:46.817Z,99568.48
2019-05-30T12:44:12.986Z,99562.34
2019-05-30T12:46:39.154Z,99557.02
2019-05-30T12:49:05.340Z,99550.33
2019-05-30T12:51:31.503Z,99545.17
2019-05-30T12:53:58.457Z,99549.00
2019-05-30T12:56:24.898Z,99548.61
2019-05-30T12:58:51.074Z,99537.76
2019-05-30T13:01:17.254Z,99537.42
2019-05-30T13:03:43.443Z,99541.11
2019-05-30T13:06:09.614Z,99538.34
2019-05-30T13:08:35.802Z,99535.98
2019-05-30T13:11:02.058Z,99524.70
2019-05-30T13:13:28.212Z,99525.59
2019-05-30T13:15:54.667Z,99529.61
2019-05-30T13:18:20.893Z,99523.72
2019-05-30T13:20:47.077Z,99529.43
2019-05-30T13:23:13.250Z,99529.43
2019-05-30T13:25:39.458Z,99526.63
2019-05-30T13:28:08.413Z,99518.09
2019-05-30T13:30:33.728Z,99529.40
2019-05-30T13:33:00.846Z,99532.97
2019-05-30T13:35:27.286Z,99535.64
2019-05-30T13:37:53.469Z,99536.63
2019-05-30T13:40:25.364Z,99550.15
2019-05-30T13:42:48.629Z,99545.64
2019-05-30T13:45:15.019Z,99553.01
2019-05-30T13:47:41.316Z,99561.13
2019-05-30T13:50:13.033Z,99558.73
2019-05-30T13:52:37.593Z,99546.48
2019-05-30T13:55:08.563Z,99554.95
2019-05-30T13:57:36.034Z,99550.09
2019-05-30T14:00:06.078Z,99553.23
2019-05-30T14:02:32.527Z,99559.01
2019-05-30T14:04:59.909Z,99553.72
2019-05-30T14:07:26.415Z,99547.95
2019-05-30T14:09:52.778Z,99545.69
2019-05-30T14:12:18.990Z,99559.00
2019-05-30T14:14:45.151Z,99548.06
2019-05-30T14:17:13.607Z,99548.06
2019-05-30T14:19:39.570Z,99557.10
2019-05-30T14:22:05.758Z,99547.17
2019-05-30T14:24:31.971Z,99553.56
2019-05-30T14:26:58.123Z,99552.03
2019-05-30T14:29:24.277Z,99550.67
2019-05-30T14:31:50.487Z,99543.66
2019-05-30T14:34:16.653Z,99538.61
2019-05-30T14:36:42.831Z,99534.92
2019-05-30T14:39:09.196Z,99543.85
2019-05-30T14:41:35.332Z,99542.89
2019-05-30T14:44:01.523Z,99541.49
2019-05-30T14:46:27.724Z,99547.17
2019-05-30T14:48:53.893Z,99547.17
2019-05-30T14:51:20.080Z,99528.84
2019-05-30T14:53:46.272Z,99541.95
2019-05-30T14:56:13.497Z,99546.16
2019-05-30T14:58:40.070Z,99546.16
2019-05-30T15:01:07.140Z,99543.06
2019-05-30T15:03:33.833Z,99544.67
2019-05-30T15:06:00.029Z,99537.13
2019-05-30T15:08:26.248Z,99543.53
2019-05-30T15:10:52.478Z,99538.94
2019-05-30T15:13:18.655Z,99538.94
2019-05-30T15:15:44.845Z,99536.56
2019-05-30T15:18:11.421Z,99532.30
2019-05-30T15:20:37.798Z,99538.05
2019-05-30T15:23:04.018Z,99530.13
2019-05-30T15:25:30.171Z,99526.42
2019-05-30T15:27:56.372Z,99522.14
2019-05-30T15:30:22.685Z,99525.52
2019-05-30T15:32:48.843Z,99529.97
2019-05-30T15:35:15.665Z,99528.16
2019-05-30T15:37:42.367Z,99525.27
2019-05-30T15:40:09.566Z,99521.64
2019-05-30T15:42:36.884Z,99522.28
2019-05-30T15:45:07.906Z,99522.66
2019-05-30T15:47:34.248Z,99516.34
2019-05-30T15:50:00.409Z,99516.23
2019-05-30T15:52:26.640Z,99519.65
2019-05-30T15:54:53.755Z,99521.13
2019-05-30T15:57:19.927Z,99514.75
2019-05-30T15:59:46.109Z,99504.42
2019-05-30T16:02:12.313Z,99502.66
2019-05-30T16:04:38.472Z,99502.66
2019-05-30T16:07:04.782Z,99510.73
2019-05-30T16:09:46.058Z,99509.58
2019-05-30T16:11:59.028Z,99514.88
2019-05-30T16:14:25.241Z,99511.83
2019-05-30T16:16:51.420Z,99513.27
2019-05-30T16:19:23.283Z,99504.95
2019-05-30T16:21:45.668Z,99513.53
2019-05-30T16:24:12.400Z,99512.17
2019-05-30T16:26:38.820Z,99514.37
2019-05-30T16:29:05.016Z,99511.08
2019-05-30T16:31:31.197Z,99509.31
2019-05-30T16:33:57.352Z,99508.59
2019-05-30T16:36:23.581Z,99508.13
2019-05-30T16:38:49.753Z,99511.70
2019-05-30T16:41:16.234Z,99510.83
2019-05-30T16:43:42.646Z,99514.52
2019-05-30T16:46:08.828Z,99502.89
2019-05-30T16:48:35.006Z,99512.28
2019-05-30T16:51:01.321Z,99514.42
2019-05-30T16:53:27.598Z,99512.81
2019-05-30T16:55:53.765Z,99509.73
2019-05-30T16:58:20.397Z,99514.30
2019-05-30T17:00:47.814Z,99513.61
2019-05-30T17:03:13.986Z,99507.41
2019-05-30T17:05:40.299Z,99512.27
2019-05-30T17:08:06.455Z,99512.22
2019-05-30T17:10:33.409Z,99512.39
2019-05-30T17:12:59.876Z,99520.23
2019-05-30T17:15:26.099Z,99524.23
2019-05-30T17:17:52.311Z,99523.63
2019-05-30T17:20:18.912Z,99529.69
2019-05-30T17:22:46.764Z,99523.13
2019-05-30T17:25:12.957Z,99514.19
2019-05-30T17:27:39.153Z,99506.80
2019-05-30T17:30:06.649Z,99506.02
2019-05-30T17:32:32.803Z,99508.16
2019-05-30T17:34:58.991Z,99504.85
2019-05-30T17:37:26.431Z,99513.20
2019-05-30T17:39:52.856Z,99505.36
2019-05-30T17:42:19.069Z,99509.30
2019-05-30T17:44:45.420Z,99512.51
2019-05-30T17:47:11.612Z,99509.83
2019-05-30T17:49:37.796Z,99510.21
2019-05-30T17:52:05.710Z,99512.51
2019-05-30T17:54:31.883Z,99516.45
2019-05-30T17:56:58.079Z,99510.66
2019-05-30T17:59:24.382Z,99521.04
2019-05-30T18:01:50.723Z,99523.92
2019-05-30T18:04:16.941Z,99529.73
2019-05-30T18:06:43.105Z,99526.25
2019-05-30T18:09:09.396Z,99528.16
2019-05-30T18:11:35.607Z,99517.86
2019-05-30T18:14:01.912Z,99523.98
2019-05-30T18:16:29.265Z,99528.16
2019-05-30T18:18:55.507Z,99537.19
2019-05-30T18:21:21.682Z,99531.91
2019-05-30T18:23:47.877Z,99540.05
2019-05-30T18:26:16.018Z,99541.55
2019-05-30T18:28:42.182Z,99539.13
2019-05-30T18:31:08.363Z,99544.73
2019-05-30T18:33:34.681Z,99546.16
2019-05-30T18:36:01.058Z,99546.81
2019-05-30T18:38:28.330Z,99551.57
2019-05-30T18:41:10.203Z,99556.48
2019-05-30T18:43:22.833Z,99568.30
2019-05-30T18:45:49.023Z,99567.17
2019-05-30T18:48:15.231Z,99569.39
2019-05-30T18:50:41.421Z,99568.48
2019-05-30T18:53:08.319Z,99572.33
2019-05-30T18:55:34.523Z,99580.77
2019-05-30T18:58:00.683Z,99575.45
2019-05-30T19:00:29.063Z,99578.41
2019-05-30T19:02:55.540Z,99584.93
2019-05-30T19:05:21.698Z,99577.41
2019-05-30T19:07:47.888Z,99585.48
2019-05-30T19:10:14.184Z,99587.40
2019-05-30T19:12:40.356Z,99586.86
2019-05-30T19:15:07.448Z,99585.91
2019-05-30T19:17:33.788Z,99580.78
2019-05-30T19:19:59.912Z,99586.62
2019-05-30T19:22:26.073Z,99582.84
2019-05-30T19:24:52.383Z,99591.58
2019-05-30T19:27:18.541Z,99602.67
2019-05-30T19:29:44.720Z,99599.20
2019-05-30T19:32:11.283Z,99600.73
2019-05-30T19:34:37.446Z,99605.04
2019-05-30T19:37:03.607Z,99606.11
2019-05-30T19:39:29.823Z,99611.22
2019-05-30T19:41:57.570Z,99617.38
2019-05-30T19:44:24.069Z,99625.10
2019-05-30T19:46:50.279Z,99621.98
2019-05-30T19:49:16.432Z,99631.81
2019-05-30T19:51:42.596Z,99639.41
2019-05-30T19:54:08.817Z,99635.70
2019-05-30T19:56:37.445Z,99639.06
2019-05-30T19:59:03.167Z,99638.41
2019-05-30T20:01:29.743Z,99640.42
2019-05-30T20:03:56.025Z,99640.67
2019-05-30T20:06:24.770Z,99642.84
2019-05-30T20:08:55.433Z,99651.61
2019-05-30T20:11:18.352Z,99659.00
2019-05-30T20:13:44.519Z,99656.56
2019-05-30T20:16:10.780Z,99657.01
2019-05-30T20:18:37.684Z,99649.69
2019-05-30T20:21:04.081Z,99647.98
2019-05-30T20:23:30.280Z,99651.88
2019-05-30T20:25:56.443Z,99649.78
2019-05-30T20:28:22.608Z,99647.61
2019-05-30T20:30:48.812Z,99643.44
2019-05-30T20:33:14.975Z,99647.52
2019-05-30T20:35:42.159Z,99631.11
2019-05-30T20:38:09.259Z,99640.61
2019-05-30T20:40:36.570Z,99633.95
2019-05-30T20:43:03.288Z,99647.27
2019-05-30T20:45:29.495Z,99638.05
2019-05-30T20:47:55.747Z,99656.09
2019-05-30T20:50:22.801Z,99654.95
2019-05-30T20:52:49.002Z,99652.36
2019-05-30T20:55:15.577Z,99652.58
2019-05-30T20:57:42.569Z,99639.06
2019-05-30T21:00:10.621Z,99649.39
2019-05-30T21:02:36.947Z,99648.57
2019-05-30T21:05:07.522Z,99657.28
2019-05-30T21:07:35.747Z,99662.76
2019-05-30T21:10:26.472Z,99659.75
2019-05-30T21:12:53.461Z,99663.34
2019-05-30T21:15:19.630Z,99667.04
2019-05-30T21:17:46.194Z,99665.16
2019-05-30T21:20:13.381Z,99672.83
2019-05-30T21:22:40.189Z,99677.77
2019-05-30T21:25:07.317Z,99693.05
2019-05-30T21:27:33.541Z,99694.63
2019-05-30T21:29:59.774Z,99695.52
2019-05-30T21:32:25.943Z,99683.19
2019-05-30T21:34:52.239Z,99676.38
2019-05-30T21:37:18.791Z,99673.05
2019-05-30T21:39:46.042Z,99672.19
2019-05-30T21:42:12.457Z,99684.83
2019-05-30T21:44:38.636Z,99704.06
2019-05-30T21:47:04.783Z,99729.05
2019-05-30T21:49:31.014Z,99732.34
2019-05-30T21:51:57.275Z,99720.38
2019-05-30T21:54:23.448Z,99733.17
2019-05-30T21:56:50.294Z,99718.50
2019-05-30T21:59:16.589Z,99731.30
2019-05-30T22:01:42.760Z,99734.87
2019-05-30T22:04:09.037Z,99745.38
2019-05-30T22:06:35.219Z,99758.34
2019-05-30T22:09:03.507Z,99769.67
2019-05-30T22:11:29.477Z,99776.84
2019-05-30T22:13:55.730Z,99788.18
2019-05-30T22:16:22.003Z,99781.80
2019-05-30T22:18:48.323Z,99781.30
2019-05-30T22:21:14.490Z,99779.87
2019-05-30T22:23:42.069Z,99778.98
2019-05-30T22:26:08.465Z,99789.50
2019-05-30T22:28:34.618Z,99791.07
2019-05-30T22:31:00.799Z,99800.28
2019-05-30T22:33:26.991Z,99798.07
2019-05-30T22:35:53.349Z,99803.53
2019-05-30T22:38:19.645Z,99809.47
2019-05-30T22:40:45.939Z,99814.23
2019-05-30T22:43:24.489Z,99817.02
2019-05-30T22:45:40.176Z,99821.52
2019-05-30T22:48:06.348Z,99822.78
2019-05-30T22:50:33.418Z,99825.14
2019-05-30T22:52:59.599Z,99835.16
2019-05-30T22:55:25.788Z,99839.16
2019-05-30T22:57:52.545Z,99833.95
2019-05-30T23:00:18.926Z,99832.38
2019-05-30T23:02:45.841Z,99833.68
2019-05-30T23:05:12.207Z,99833.95
2019-05-30T23:07:38.378Z,99833.67
2019-05-30T23:10:04.982Z,99833.33
2019-05-30T23:12:31.130Z,99825.27
2019-05-30T23:14:57.304Z,99830.16
2019-05-30T23:17:23.507Z,99822.06
2019-05-30T23:19:51.351Z,99830.39
2019-05-30T23:22:17.794Z,99826.05
2019-05-30T23:24:43.980Z,99824.30
2019-05-30T23:27:10.265Z,99823.14
2019-05-30T23:29:36.897Z,99829.77
2019-05-30T23:32:03.095Z,99824.27
2019-05-30T23:34:29.238Z,99830.04
2019-05-30T23:36:56.595Z,99823.80
2019-05-30T23:39:23.098Z,99828.71
2019-05-30T23:41:49.248Z,99819.10
2019-05-30T23:44:15.422Z,99824.45
2019-05-30T23:46:41.624Z,99818.71
2019-05-30T23:49:07.778Z,99818.34
2019-05-30T23:51:33.975Z,99820.27
2019-05-30T23:54:00.526Z,99816.59
2019-05-30T23:56:26.832Z,99812.75
2019-05-30T23:58:53.004Z,99812.17
